Time;durP1;ratioP1;P1;durP2;ratioP2;P2;SDS_P1;SDS_P2;PMS_P1;PMS_P2;Temp;Humidity;BMP_temperature;BMP_pressure;BME280_temperature;BME280_humidity;BME280_pressure;Samples;Min_cycle;Max_cycle;Signal;HPM_P1;HPM_P2
2021/09/17 00:01:12;;;;;;;10.43;7.30;;;;;;;;;;4995803;28;20030;-76
2021/09/17 00:03:37;;;;;;;14.43;8.25;;;;;;;;;;5012066;28;20029;-74
2021/09/17 00:06:04;;;;;;;12.77;7.90;;;;;;;;;;5013148;28;20112;-75
2021/09/17 00:08:29;;;;;;;14.23;7.20;;;;;;;;;;5013169;28;20018;-77
2021/09/17 00:10:55;;;;;;;12.82;7.45;;;;;;;;;;5013063;28;20044;-76
2021/09/17 00:13:21;;;;;;;10.77;6.88;;;;;;;;;;4995637;28;20033;-76
2021/09/17 00:15:47;;;;;;;12.25;7.22;;;;;;;;;;5013012;28;20072;-76
2021/09/17 00:18:14;;;;;;;12.98;7.43;;;;;;;;;;5012828;28;20018;-74
2021/09/17 00:20:40;;;;;;;11.13;6.75;;;;;;;;;;5013105;28;20033;-76
2021/09/17 00:23:07;;;;;;;9.75;6.75;;;;;;;;;;5012907;28;20319;-75
2021/09/17 00:25:33;;;;;;;11.70;6.85;;;;;;;;;;5013144;28;20057;-74
2021/09/17 00:27:59;;;;;;;8.60;6.45;;;;;;;;;;4979200;28;20029;-75
2021/09/17 00:30:28;;;;;;;10.30;6.75;;;;;;;;;;5013043;28;20045;-75
2021/09/17 00:32:54;;;;;;;13.20;6.97;;;;;;;;;;5013372;28;20081;-76
2021/09/17 00:35:20;;;;;;;9.60;7.10;;;;;;;;;;5013434;28;20490;-75
2021/09/17 00:37:46;;;;;;;11.27;6.70;;;;;;;;;;5014633;28;20471;-75
2021/09/17 00:40:12;;;;;;;13.48;6.65;;;;;;;;;;5017225;28;20087;-75
2021/09/17 00:42:39;;;;;;;11.40;7.05;;;;;;;;;;5000649;28;20026;-76
2021/09/17 00:45:06;;;;;;;14.95;6.75;;;;;;;;;;5017193;28;20049;-75
2021/09/17 00:47:33;;;;;;;8.88;6.85;;;;;;;;;;5017311;28;20036;-75
2021/09/17 00:49:59;;;;;;;11.63;7.07;;;;;;;;;;5016131;28;20490;-77
2021/09/17 00:52:24;;;;;;;10.50;6.80;;;;;;;;;;4995024;28;20583;-76
2021/09/17 00:54:50;;;;;;;9.23;6.40;;;;;;;;;;4994095;28;20387;-75
2021/09/17 00:57:15;;;;;;;11.07;6.30;;;;;;;;;;5013736;28;20025;-76
2021/09/17 00:59:41;;;;;;;12.43;6.35;;;;;;;;;;5013447;28;20532;-76
2021/09/17 01:02:07;;;;;;;11.63;7.15;;;;;;;;;;4994645;28;20061;-76
2021/09/17 01:04:32;;;;;;;8.68;6.30;;;;;;;;;;5012086;28;20076;-77
2021/09/17 01:06:58;;;;;;;10.52;6.32;;;;;;;;;;4994263;28;20084;-75
2021/09/17 01:09:25;;;;;;;14.63;6.20;;;;;;;;;;5011944;28;20029;-76
2021/09/17 01:11:52;;;;;;;10.50;6.45;;;;;;;;;;5011739;28;20109;-75
2021/09/17 01:14:19;;;;;;;11.50;6.18;;;;;;;;;;5012148;28;20026;-76
2021/09/17 01:16:45;;;;;;;10.05;6.82;;;;;;;;;;5011834;28;20373;-76
2021/09/17 01:19:11;;;;;;;9.68;6.38;;;;;;;;;;5012011;28;20040;-75
2021/09/17 01:21:37;;;;;;;15.13;5.97;;;;;;;;;;5011850;28;20085;-75
2021/09/17 01:24:03;;;;;;;8.35;6.10;;;;;;;;;;4994030;28;20048;-74
2021/09/17 01:26:29;;;;;;;12.77;6.40;;;;;;;;;;5011676;28;20017;-76
2021/09/17 01:28:54;;;;;;;9.48;6.53;;;;;;;;;;5011319;28;20470;-76
2021/09/17 01:31:21;;;;;;;14.15;7.30;;;;;;;;;;5011259;28;20057;-75
2021/09/17 01:33:46;;;;;;;11.85;6.72;;;;;;;;;;5011427;28;20208;-76
2021/09/17 01:36:12;;;;;;;13.98;6.80;;;;;;;;;;5009936;28;20509;-75
2021/09/17 01:38:40;;;;;;;9.63;6.57;;;;;;;;;;5011467;28;20355;-75
2021/09/17 01:41:05;;;;;;;9.88;6.68;;;;;;;;;;4993527;28;20030;-76
2021/09/17 01:43:31;;;;;;;11.15;6.80;;;;;;;;;;4993870;28;20030;-75
2021/09/17 01:45:57;;;;;;;10.80;7.20;;;;;;;;;;5011075;28;20030;-77
2021/09/17 01:48:29;;;;;;;12.05;6.28;;;;;;;;;;4993882;28;20018;-74
2021/09/17 01:50:54;;;;;;;9.55;7.15;;;;;;;;;;4993442;28;20028;-76
2021/09/17 01:53:20;;;;;;;11.60;6.88;;;;;;;;;;5011090;28;20037;-77
2021/09/17 01:55:46;;;;;;;11.98;7.38;;;;;;;;;;5011040;28;20081;-76
2021/09/17 01:58:12;;;;;;;12.05;7.60;;;;;;;;;;4993376;28;20533;-76
2021/09/17 02:00:37;;;;;;;11.27;6.85;;;;;;;;;;5010964;28;20022;-76
2021/09/17 02:03:03;;;;;;;9.80;6.68;;;;;;;;;;4976804;28;20371;-76
2021/09/17 02:05:29;;;;;;;12.30;6.97;;;;;;;;;;5010870;28;20049;-75
2021/09/17 02:07:57;;;;;;;13.00;7.40;;;;;;;;;;5009799;28;20076;-77
2021/09/17 02:10:23;;;;;;;10.68;7.07;;;;;;;;;;5010854;28;20109;-76
2021/09/17 02:12:49;;;;;;;14.75;7.65;;;;;;;;;;5010868;28;20080;-76
2021/09/17 02:15:14;;;;;;;18.42;7.28;;;;;;;;;;5010581;28;20034;-77
2021/09/17 02:17:40;;;;;;;9.23;6.45;;;;;;;;;;5010723;28;20038;-76
2021/09/17 02:20:08;;;;;;;13.05;6.75;;;;;;;;;;5009378;28;20026;-77
2021/09/17 02:22:34;;;;;;;13.43;7.57;;;;;;;;;;5010664;28;20037;-76
2021/09/17 02:25:00;;;;;;;9.23;6.10;;;;;;;;;;5010585;28;20030;-76
2021/09/17 02:27:27;;;;;;;13.40;7.43;;;;;;;;;;5010661;28;20104;-76
2021/09/17 02:29:52;;;;;;;13.43;7.68;;;;;;;;;;5009045;28;20034;-76
2021/09/17 02:32:18;;;;;;;10.38;6.28;;;;;;;;;;5010717;28;20330;-76
2021/09/17 02:34:44;;;;;;;14.43;7.32;;;;;;;;;;5010586;28;20032;-76
2021/09/17 02:37:10;;;;;;;12.07;6.25;;;;;;;;;;5010446;28;20054;-76
2021/09/17 02:39:36;;;;;;;10.15;6.90;;;;;;;;;;4993037;28;20060;-75
2021/09/17 02:42:02;;;;;;;15.55;6.72;;;;;;;;;;5010928;28;20026;-76
2021/09/17 02:44:28;;;;;;;10.00;7.75;;;;;;;;;;4993781;28;20026;-74
2021/09/17 02:46:54;;;;;;;10.20;7.15;;;;;;;;;;5010453;28;20156;-75
2021/09/17 02:49:19;;;;;;;9.25;6.75;;;;;;;;;;5008924;28;20018;-76
2021/09/17 02:51:46;;;;;;;13.15;6.90;;;;;;;;;;5010099;28;20028;-76
2021/09/17 02:54:12;;;;;;;13.93;6.88;;;;;;;;;;5010114;28;20028;-76
2021/09/17 02:56:37;;;;;;;15.27;7.13;;;;;;;;;;5010544;28;20054;-76
2021/09/17 02:59:04;;;;;;;10.88;6.93;;;;;;;;;;5009981;28;20080;-72
2021/09/17 03:01:30;;;;;;;11.48;6.25;;;;;;;;;;5010468;28;20034;-72
2021/09/17 03:03:55;;;;;;;7.80;6.15;;;;;;;;;;5009671;28;20088;-73
2021/09/17 03:06:22;;;;;;;14.35;7.25;;;;;;;;;;5008664;28;20055;-73
2021/09/17 03:08:49;;;;;;;16.05;6.90;;;;;;;;;;4984030;28;20021;-73
2021/09/17 03:11:16;;;;;;;11.68;7.13;;;;;;;;;;5009816;28;20026;-72
2021/09/17 03:13:42;;;;;;;12.30;6.55;;;;;;;;;;4992064;28;20048;-72
2021/09/17 03:16:08;;;;;;;12.13;5.72;;;;;;;;;;4992171;28;20057;-73
2021/09/17 03:18:34;;;;;;;17.52;6.30;;;;;;;;;;5009507;28;20501;-74
2021/09/17 03:21:00;;;;;;;15.20;6.78;;;;;;;;;;4991821;28;20030;-73
2021/09/17 03:23:26;;;;;;;8.40;5.65;;;;;;;;;;5009794;28;20026;-74
2021/09/17 03:25:52;;;;;;;7.53;5.28;;;;;;;;;;5009790;28;20550;-74
2021/09/17 03:28:17;;;;;;;8.80;5.88;;;;;;;;;;5009556;28;20538;-75
2021/09/17 03:30:43;;;;;;;14.20;5.97;;;;;;;;;;4991936;28;20060;-75
2021/09/17 03:33:11;;;;;;;8.45;5.97;;;;;;;;;;5009333;28;20474;-74
2021/09/17 03:35:40;;;;;;;8.18;5.43;;;;;;;;;;4991859;28;20025;-74
2021/09/17 03:38:06;;;;;;;11.80;5.72;;;;;;;;;;5009370;28;20034;-74
2021/09/17 03:40:33;;;;;;;8.82;5.25;;;;;;;;;;5009732;28;20025;-74
2021/09/17 03:42:59;;;;;;;16.42;5.97;;;;;;;;;;5009737;28;20065;-73
2021/09/17 03:45:26;;;;;;;13.27;5.93;;;;;;;;;;5009447;28;20516;-71
2021/09/17 03:47:53;;;;;;;9.07;6.15;;;;;;;;;;5009450;28;20359;-72
2021/09/17 03:50:19;;;;;;;9.15;6.15;;;;;;;;;;5009427;28;20025;-72
2021/09/17 03:52:45;;;;;;;14.02;5.35;;;;;;;;;;5008056;28;20038;-72
2021/09/17 03:55:11;;;;;;;9.70;5.85;;;;;;;;;;4991681;28;20379;-72
2021/09/17 03:57:37;;;;;;;18.88;12.60;;;;;;;;;;4991616;28;20389;-73
2021/09/17 04:00:04;;;;;;;10.77;6.03;;;;;;;;;;5009390;28;20079;-72
2021/09/17 04:02:30;;;;;;;13.73;6.53;;;;;;;;;;4991960;28;20381;-71
2021/09/17 04:04:55;;;;;;;12.13;6.78;;;;;;;;;;5009383;28;20029;-72
2021/09/17 04:07:21;;;;;;;8.90;5.60;;;;;;;;;;5009213;28;20021;-72
2021/09/17 04:09:47;;;;;;;8.60;5.78;;;;;;;;;;5009376;28;20029;-72
2021/09/17 04:12:12;;;;;;;11.98;5.57;;;;;;;;;;5009039;28;20048;-71
2021/09/17 04:14:38;;;;;;;10.35;6.35;;;;;;;;;;5009138;28;20540;-72
2021/09/17 04:17:03;;;;;;;14.57;7.32;;;;;;;;;;4991122;28;20386;-73
2021/09/17 04:19:29;;;;;;;19.20;8.10;;;;;;;;;;5009115;28;20108;-72
2021/09/17 04:21:54;;;;;;;12.70;6.30;;;;;;;;;;5009143;28;20033;-74
2021/09/17 04:24:20;;;;;;;10.75;5.90;;;;;;;;;;4991009;28;20056;-72
2021/09/17 04:26:46;;;;;;;8.25;6.55;;;;;;;;;;4982375;28;20030;-72
2021/09/17 04:29:11;;;;;;;8.68;5.85;;;;;;;;;;5002198;28;20018;-72
2021/09/17 04:31:37;;;;;;;15.18;6.97;;;;;;;;;;4974407;28;20046;-73
2021/09/17 04:34:02;;;;;;;13.65;5.63;;;;;;;;;;4978409;28;20474;-72
2021/09/17 04:36:29;;;;;;;8.65;5.65;;;;;;;;;;4975408;28;20023;-74
2021/09/17 04:38:55;;;;;;;10.07;6.97;;;;;;;;;;4980620;28;20030;-75
2021/09/17 04:41:20;;;;;;;11.88;6.70;;;;;;;;;;4982991;28;20030;-76
2021/09/17 04:43:46;;;;;;;21.02;6.13;;;;;;;;;;4999447;28;20489;-78
2021/09/17 04:46:12;;;;;;;11.25;6.28;;;;;;;;;;5013094;28;20040;-76
2021/09/17 04:48:38;;;;;;;15.52;5.80;;;;;;;;;;5014993;28;20100;-79
2021/09/17 04:51:03;;;;;;;10.13;5.88;;;;;;;;;;5003557;28;20077;-76
2021/09/17 04:53:29;;;;;;;8.73;6.18;;;;;;;;;;4992778;28;20022;-75
2021/09/17 04:55:55;;;;;;;9.68;6.55;;;;;;;;;;4967343;28;20056;-75
2021/09/17 04:58:20;;;;;;;13.68;5.80;;;;;;;;;;5010520;28;20030;-76
2021/09/17 05:00:46;;;;;;;10.00;6.82;;;;;;;;;;4987195;28;20030;-76
2021/09/17 05:03:11;;;;;;;14.50;6.35;;;;;;;;;;4994533;28;20441;-76
2021/09/17 05:05:38;;;;;;;14.10;6.65;;;;;;;;;;4993210;28;20061;-74
2021/09/17 05:08:04;;;;;;;11.93;7.18;;;;;;;;;;4978055;28;20014;-76
2021/09/17 05:10:30;;;;;;;15.43;6.55;;;;;;;;;;4978085;28;20111;-75
2021/09/17 05:12:55;;;;;;;13.35;7.05;;;;;;;;;;4995847;28;20445;-79
2021/09/17 05:15:21;;;;;;;9.95;6.68;;;;;;;;;;4995072;28;20034;-76
2021/09/17 05:17:46;;;;;;;10.30;5.82;;;;;;;;;;4994896;28;20026;-77
2021/09/17 05:20:13;;;;;;;11.88;6.78;;;;;;;;;;4996206;28;20022;-76
2021/09/17 05:22:41;;;;;;;13.88;7.25;;;;;;;;;;5002830;28;20030;-74
2021/09/17 05:25:07;;;;;;;8.88;5.88;;;;;;;;;;4960661;28;20042;-75
2021/09/17 05:27:33;;;;;;;9.52;5.88;;;;;;;;;;4977121;28;20033;-76
2021/09/17 05:30:00;;;;;;;9.77;6.20;;;;;;;;;;4994684;28;20034;-76
2021/09/17 05:32:26;;;;;;;13.02;7.00;;;;;;;;;;4978385;28;20022;-76
2021/09/17 05:34:52;;;;;;;16.40;6.72;;;;;;;;;;5012522;28;20098;-77
2021/09/17 05:37:18;;;;;;;10.15;6.10;;;;;;;;;;5016023;28;20492;-76
2021/09/17 05:39:45;;;;;;;12.02;6.43;;;;;;;;;;5001798;28;20117;-77
2021/09/17 05:42:10;;;;;;;8.88;6.00;;;;;;;;;;4989859;28;20026;-76
2021/09/17 05:44:36;;;;;;;9.60;6.57;;;;;;;;;;4973106;28;20518;-76
2021/09/17 05:47:02;;;;;;;11.07;6.65;;;;;;;;;;4974083;28;20062;-76
2021/09/17 05:49:30;;;;;;;9.27;6.45;;;;;;;;;;4982090;28;20026;-75
2021/09/17 05:51:56;;;;;;;15.07;7.20;;;;;;;;;;4991302;28;20424;-77
2021/09/17 05:54:22;;;;;;;11.98;6.40;;;;;;;;;;4977282;28;20574;-76
2021/09/17 05:56:48;;;;;;;15.18;8.38;;;;;;;;;;4979763;28;20090;-76
2021/09/17 05:59:13;;;;;;;13.10;6.10;;;;;;;;;;4983154;28;20038;-74
2021/09/17 06:01:39;;;;;;;14.07;6.03;;;;;;;;;;4993428;28;20030;-75
2021/09/17 06:04:04;;;;;;;14.00;6.68;;;;;;;;;;4975745;28;20034;-77
2021/09/17 06:06:30;;;;;;;9.75;6.78;;;;;;;;;;4991734;28;20446;-76
2021/09/17 06:08:57;;;;;;;15.60;7.82;;;;;;;;;;4987404;28;20009;-76
2021/09/17 06:11:23;;;;;;;12.75;7.45;;;;;;;;;;4975848;28;20034;-76
2021/09/17 06:13:48;;;;;;;11.15;6.10;;;;;;;;;;4978229;28;20180;-76
2021/09/17 06:16:14;;;;;;;15.80;6.32;;;;;;;;;;4997942;28;20029;-76
2021/09/17 06:18:41;;;;;;;15.27;6.82;;;;;;;;;;5004967;28;20490;-76
2021/09/17 06:21:08;;;;;;;15.93;6.38;;;;;;;;;;5011568;28;20026;-77
2021/09/17 06:23:34;;;;;;;9.98;6.93;;;;;;;;;;4981837;28;20033;-78
2021/09/17 06:25:59;;;;;;;17.25;6.78;;;;;;;;;;4985834;28;20431;-76
2021/09/17 06:28:25;;;;;;;10.50;5.95;;;;;;;;;;4982244;28;20025;-76
2021/09/17 06:30:52;;;;;;;11.50;5.57;;;;;;;;;;5011239;28;20064;-78
2021/09/17 06:33:18;;;;;;;11.27;7.15;;;;;;;;;;4993833;28;20022;-77
2021/09/17 06:35:45;;;;;;;9.55;6.18;;;;;;;;;;4989786;28;20118;-75
2021/09/17 06:38:11;;;;;;;10.25;6.57;;;;;;;;;;4976485;28;20038;-77
2021/09/17 06:40:37;;;;;;;7.50;5.35;;;;;;;;;;5002636;28;20041;-76
2021/09/17 06:43:03;;;;;;;14.25;6.38;;;;;;;;;;4991091;28;20041;-74
2021/09/17 06:45:29;;;;;;;7.60;5.65;;;;;;;;;;4974641;28;20041;-77
2021/09/17 06:47:58;;;;;;;14.13;5.88;;;;;;;;;;4982893;28;20398;-75
2021/09/17 06:50:28;;;;;;;10.10;6.35;;;;;;;;;;4989275;28;20026;-76
2021/09/17 06:52:54;;;;;;;7.93;5.80;;;;;;;;;;4971499;28;20105;-77
2021/09/17 06:55:25;;;;;;;11.82;6.70;;;;;;;;;;4977526;28;20029;-76
2021/09/17 06:57:53;;;;;;;10.25;5.50;;;;;;;;;;4964365;28;20529;-77
2021/09/17 07:00:23;;;;;;;10.32;7.80;;;;;;;;;;4989522;28;20089;-76
2021/09/17 07:02:49;;;;;;;11.35;6.07;;;;;;;;;;4982836;28;20026;-77
2021/09/17 07:05:16;;;;;;;8.93;6.70;;;;;;;;;;4989454;28;20034;-76
2021/09/17 07:07:42;;;;;;;10.43;6.03;;;;;;;;;;5006871;28;20117;-77
2021/09/17 07:10:09;;;;;;;11.15;6.50;;;;;;;;;;4988968;28;20030;-76
2021/09/17 07:12:35;;;;;;;11.13;5.50;;;;;;;;;;4997716;28;20137;-76
2021/09/17 07:15:02;;;;;;;8.77;5.53;;;;;;;;;;4999362;28;20186;-78
2021/09/17 07:17:28;;;;;;;13.40;5.93;;;;;;;;;;4983114;28;20026;-78
2021/09/17 07:19:54;;;;;;;13.80;6.65;;;;;;;;;;4997948;28;20049;-78
2021/09/17 07:22:20;;;;;;;11.95;6.88;;;;;;;;;;5010179;28;20406;-76
2021/09/17 07:24:47;;;;;;;11.05;6.32;;;;;;;;;;4991880;28;20458;-78
2021/09/17 07:27:13;;;;;;;11.98;5.97;;;;;;;;;;4992937;28;20603;-76
2021/09/17 07:29:39;;;;;;;14.50;6.22;;;;;;;;;;4989301;28;20105;-76
2021/09/17 07:32:05;;;;;;;12.52;5.80;;;;;;;;;;4975073;28;20054;-76
2021/09/17 07:34:31;;;;;;;9.02;5.63;;;;;;;;;;4984247;28;20046;-77
2021/09/17 07:36:57;;;;;;;8.98;4.65;;;;;;;;;;4994713;28;20034;-77
2021/09/17 07:39:22;;;;;;;8.52;4.97;;;;;;;;;;4977183;28;20030;-77
2021/09/17 07:41:48;;;;;;;7.13;4.18;;;;;;;;;;4996922;28;20053;-77
2021/09/17 07:44:14;;;;;;;8.00;4.80;;;;;;;;;;4973021;28;20034;-77
2021/09/17 07:46:40;;;;;;;11.93;5.30;;;;;;;;;;4993615;28;20080;-77
2021/09/17 07:49:06;;;;;;;6.32;3.95;;;;;;;;;;4992073;28;20022;-76
2021/09/17 07:51:31;;;;;;;10.52;5.53;;;;;;;;;;4976817;28;20033;-75
2021/09/17 07:53:57;;;;;;;7.93;4.80;;;;;;;;;;4981215;28;20037;-77
2021/09/17 07:56:23;;;;;;;11.13;4.57;;;;;;;;;;4969743;28;20037;-76
2021/09/17 07:58:49;;;;;;;9.70;4.78;;;;;;;;;;4976314;28;20514;-78
2021/09/17 08:01:14;;;;;;;7.57;4.43;;;;;;;;;;4996615;28;20495;-79
2021/09/17 08:03:41;;;;;;;9.52;4.38;;;;;;;;;;4986249;28;20394;-77
2021/09/17 08:06:10;;;;;;;7.47;4.53;;;;;;;;;;4982339;28;20041;-75
2021/09/17 08:08:36;;;;;;;7.18;4.72;;;;;;;;;;4992387;28;20025;-78
2021/09/17 08:11:02;;;;;;;13.98;7.72;;;;;;;;;;4981734;28;20045;-75
2021/09/17 08:13:27;;;;;;;6.40;4.50;;;;;;;;;;4999898;28;20153;-76
2021/09/17 08:15:53;;;;;;;5.47;4.32;;;;;;;;;;4999635;28;20053;-76
2021/09/17 08:18:20;;;;;;;5.60;4.38;;;;;;;;;;4991769;28;20038;-76
2021/09/17 08:20:49;;;;;;;10.07;4.90;;;;;;;;;;4972372;28;20093;-75
2021/09/17 08:23:20;;;;;;;10.27;5.63;;;;;;;;;;5005060;28;20084;-76
2021/09/17 08:25:55;;;;;;;8.40;5.18;;;;;;;;;;5006448;28;20026;-76
2021/09/17 08:28:22;;;;;;;6.65;4.10;;;;;;;;;;4993072;28;20088;-74
2021/09/17 08:30:49;;;;;;;6.00;3.80;;;;;;;;;;4976201;28;20050;-75
2021/09/17 08:33:14;;;;;;;8.93;4.68;;;;;;;;;;4999564;28;20037;-75
2021/09/17 08:35:40;;;;;;;10.52;4.28;;;;;;;;;;4977462;28;20471;-75
2021/09/17 08:38:05;;;;;;;7.38;4.30;;;;;;;;;;4983415;28;20647;-76
2021/09/17 08:40:31;;;;;;;5.55;3.92;;;;;;;;;;4995718;28;20030;-77
2021/09/17 08:43:01;;;;;;;7.43;4.68;;;;;;;;;;4992014;28;20038;-79
2021/09/17 08:45:27;;;;;;;5.68;3.80;;;;;;;;;;4990900;28;20081;-77
2021/09/17 08:47:53;;;;;;;8.20;4.82;;;;;;;;;;4974901;28;20026;-77
2021/09/17 08:50:20;;;;;;;13.32;5.35;;;;;;;;;;4988720;28;20041;-79
2021/09/17 08:52:46;;;;;;;16.45;4.72;;;;;;;;;;4997361;28;20395;-79
2021/09/17 08:55:12;;;;;;;6.15;3.63;;;;;;;;;;4992656;28;20037;-77
2021/09/17 08:57:38;;;;;;;12.00;4.13;;;;;;;;;;4989405;28;20391;-77
2021/09/17 09:00:05;;;;;;;12.68;4.85;;;;;;;;;;4968808;28;20038;-75
2021/09/17 09:02:31;;;;;;;6.68;4.72;;;;;;;;;;4969640;28;20034;-77
2021/09/17 09:05:05;;;;;;;5.53;3.55;;;;;;;;;;4982821;28;20030;-75
2021/09/17 09:07:32;;;;;;;5.40;3.75;;;;;;;;;;4970023;28;20048;-76
2021/09/17 09:10:04;;;;;;;12.85;3.15;;;;;;;;;;4986440;28;20036;-75
2021/09/17 09:12:30;;;;;;;5.80;2.83;;;;;;;;;;4991496;28;20089;-78
2021/09/17 09:15:15;;;;;;;8.65;2.83;;;;;;;;;;4980365;28;20050;-76
2021/09/17 09:17:42;;;;;;;7.85;3.42;;;;;;;;;;4991428;28;20040;-74
2021/09/17 09:20:27;;;;;;;5.55;3.30;;;;;;;;;;4991675;28;20141;-75
2021/09/17 09:23:22;;;;;;;5.07;2.70;;;;;;;;;;4991800;28;20509;-76
2021/09/17 09:26:08;;;;;;;6.05;2.90;;;;;;;;;;4992259;28;20029;-77
2021/09/17 09:28:39;;;;;;;5.57;2.88;;;;;;;;;;4970343;28;20126;-75
2021/09/17 09:31:13;;;;;;;4.07;2.42;;;;;;;;;;4992550;28;20078;-77
2021/09/17 09:33:47;;;;;;;5.97;3.47;;;;;;;;;;4987269;28;20034;-77
2021/09/17 09:36:14;;;;;;;5.13;3.72;;;;;;;;;;4992635;28;20065;-76
2021/09/17 09:38:46;;;;;;;4.75;2.70;;;;;;;;;;4975944;28;20336;-76
2021/09/17 09:41:16;;;;;;;7.43;2.75;;;;;;;;;;4982860;28;20694;-77
2021/09/17 09:43:52;;;;;;;4.88;3.03;;;;;;;;;;4986631;28;20049;-77
2021/09/17 09:46:30;;;;;;;5.15;3.00;;;;;;;;;;4987414;28;20125;-77
2021/09/17 09:49:02;;;;;;;4.00;2.80;;;;;;;;;;4974253;28;20137;-77
2021/09/17 09:51:30;;;;;;;9.40;2.92;;;;;;;;;;4974682;28;20032;-75
2021/09/17 09:54:00;;;;;;;5.47;2.97;;;;;;;;;;4988957;28;20042;-77
2021/09/17 09:56:33;;;;;;;12.02;3.63;;;;;;;;;;4990062;28;20026;-77
2021/09/17 09:59:03;;;;;;;3.95;2.65;;;;;;;;;;4971780;28;20045;-78
2021/09/17 10:01:30;;;;;;;7.43;2.88;;;;;;;;;;4977429;28;20451;-77
2021/09/17 10:03:59;;;;;;;4.40;2.80;;;;;;;;;;4990804;28;20018;-80
2021/09/17 10:06:25;;;;;;;6.78;2.90;;;;;;;;;;4973925;28;20034;-77
2021/09/17 10:08:54;;;;;;;9.68;3.15;;;;;;;;;;4993934;28;20015;-77
2021/09/17 10:11:24;;;;;;;5.93;3.22;;;;;;;;;;4994862;28;20466;-78
2021/09/17 10:13:53;;;;;;;5.35;3.00;;;;;;;;;;4998407;28;20034;-76
2021/09/17 10:16:22;;;;;;;9.40;3.30;;;;;;;;;;5003300;28;20105;-77
2021/09/17 10:18:48;;;;;;;4.88;3.13;;;;;;;;;;4976133;28;20463;-76
2021/09/17 10:21:46;;;;;;;3.47;2.80;;;;;;;;;;5006586;28;20030;-77
2021/09/17 10:24:27;;;;;;;4.75;2.65;;;;;;;;;;5006702;28;20028;-77
2021/09/17 10:26:57;;;;;;;4.55;2.90;;;;;;;;;;4978016;28;20077;-78
2021/09/17 10:29:34;;;;;;;3.63;2.50;;;;;;;;;;4991789;28;20034;-76
2021/09/17 10:32:03;;;;;;;5.45;3.55;;;;;;;;;;4991046;28;20221;-78
2021/09/17 10:35:12;;;;;;;8.93;2.30;;;;;;;;;;4970921;28;20121;-76
2021/09/17 10:37:56;;;;;;;5.78;2.78;;;;;;;;;;4983563;28;20056;-77
2021/09/17 10:40:45;;;;;;;5.22;2.03;;;;;;;;;;4989801;28;20034;-78
2021/09/17 10:43:10;;;;;;;3.92;2.70;;;;;;;;;;4969129;28;20336;-75
2021/09/17 10:45:44;;;;;;;3.08;2.28;;;;;;;;;;4985702;28;20085;-78
2021/09/17 10:48:12;;;;;;;4.05;2.08;;;;;;;;;;4985645;28;20369;-75
2021/09/17 10:50:53;;;;;;;3.22;2.20;;;;;;;;;;4987061;28;20040;-76
2021/09/17 10:53:40;;;;;;;3.95;2.30;;;;;;;;;;4987860;28;20380;-77
2021/09/17 10:56:14;;;;;;;7.10;2.42;;;;;;;;;;4992459;28;20069;-76
2021/09/17 10:58:44;;;;;;;6.60;2.58;;;;;;;;;;4975393;28;20117;-76
2021/09/17 11:01:17;;;;;;;3.45;2.15;;;;;;;;;;4989094;28;20035;-77
2021/09/17 11:03:45;;;;;;;3.47;2.05;;;;;;;;;;4978333;28;20060;-76
2021/09/17 11:06:25;;;;;;;6.20;2.75;;;;;;;;;;4988500;28;20084;-77
2021/09/17 11:09:00;;;;;;;4.60;2.35;;;;;;;;;;4985218;28;20105;-77
2021/09/17 11:11:43;;;;;;;6.45;3.10;;;;;;;;;;4989901;28;20076;-77
2021/09/17 11:14:21;;;;;;;5.90;2.60;;;;;;;;;;4975528;28;20025;-76
2021/09/17 11:16:48;;;;;;;5.57;3.10;;;;;;;;;;4971900;28;20042;-77
2021/09/17 11:19:17;;;;;;;3.15;2.85;;;;;;;;;;4992738;28;20022;-75
2021/09/17 11:21:51;;;;;;;3.90;2.55;;;;;;;;;;4987052;28;20600;-75
2021/09/17 11:24:25;;;;;;;5.93;2.72;;;;;;;;;;4994999;28;20030;-76
2021/09/17 11:26:52;;;;;;;10.25;2.85;;;;;;;;;;4978096;28;20041;-77
2021/09/17 11:29:20;;;;;;;4.03;2.40;;;;;;;;;;4996650;28;20022;-75
2021/09/17 11:31:52;;;;;;;3.90;3.30;;;;;;;;;;4982567;28;20081;-77
2021/09/17 11:34:18;;;;;;;;;;;;;;;;;;4990745;28;20033;-78
2021/09/17 11:36:48;;;;;;;2.83;2.53;;;;;;;;;;4990478;28;19956;-77
2021/09/17 11:39:17;;;;;;;2.35;2.15;;;;;;;;;;4995109;28;20024;-77
2021/09/17 11:41:44;;;;;;;2.63;2.08;;;;;;;;;;4977548;28;20117;-76
2021/09/17 11:44:10;;;;;;;4.10;2.33;;;;;;;;;;4994199;28;20463;-76
2021/09/17 11:46:36;;;;;;;3.47;2.03;;;;;;;;;;4991457;28;20562;-75
2021/09/17 11:49:03;;;;;;;5.10;2.78;;;;;;;;;;4974321;28;20125;-76
2021/09/17 11:51:28;;;;;;;2.92;2.40;;;;;;;;;;4974740;28;20029;-76
2021/09/17 11:53:55;;;;;;;2.83;2.03;;;;;;;;;;4992645;28;20399;-75
2021/09/17 11:56:21;;;;;;;3.92;2.25;;;;;;;;;;4973857;28;20415;-76
2021/09/17 11:58:47;;;;;;;3.03;2.05;;;;;;;;;;4990863;28;20096;-75
2021/09/17 12:01:18;;;;;;;4.93;1.80;;;;;;;;;;4988400;28;20077;-76
2021/09/17 12:03:46;;;;;;;2.03;1.58;;;;;;;;;;4969956;28;20038;-76
2021/09/17 12:06:12;;;;;;;2.85;1.50;;;;;;;;;;4979217;28;20490;-75
2021/09/17 12:08:37;;;;;;;4.35;1.88;;;;;;;;;;4988403;28;20026;-74
2021/09/17 12:11:03;;;;;;;2.47;1.70;;;;;;;;;;4985885;28;20375;-75
2021/09/17 12:13:29;;;;;;;2.88;1.45;;;;;;;;;;4990987;28;20034;-75
2021/09/17 12:15:57;;;;;;;4.43;2.65;;;;;;;;;;4991144;28;20037;-76
2021/09/17 12:18:26;;;;;;;3.65;1.30;;;;;;;;;;4990136;28;20038;-76
2021/09/17 12:20:55;;;;;;;1.65;1.33;;;;;;;;;;4981977;28;20029;-76
2021/09/17 12:23:40;;;;;;;1.40;1.02;;;;;;;;;;4990603;28;20026;-74
2021/09/17 12:26:10;;;;;;;1.88;1.15;;;;;;;;;;4987272;28;20049;-77
2021/09/17 12:28:36;;;;;;;1.20;1.00;;;;;;;;;;4990491;28;20478;-76
2021/09/17 12:31:03;;;;;;;1.92;1.00;;;;;;;;;;4961273;28;20066;-76
2021/09/17 12:33:35;;;;;;;1.40;1.00;;;;;;;;;;4991256;28;20124;-77
2021/09/17 12:36:10;;;;;;;3.08;1.08;;;;;;;;;;4990382;28;20092;-76
2021/09/17 12:38:37;;;;;;;1.52;1.40;;;;;;;;;;4987449;28;20041;-75
2021/09/17 12:41:10;;;;;;;5.35;1.65;;;;;;;;;;4991822;28;20037;-76
2021/09/17 12:43:39;;;;;;;1.63;1.30;;;;;;;;;;4977298;28;20030;-76
2021/09/17 12:46:09;;;;;;;2.00;1.52;;;;;;;;;;4987032;28;20054;-77
2021/09/17 12:48:39;;;;;;;3.55;1.40;;;;;;;;;;4987967;28;20108;-74
2021/09/17 12:51:06;;;;;;;4.32;1.60;;;;;;;;;;4981802;28;20509;-77
2021/09/17 12:53:38;;;;;;;2.10;1.33;;;;;;;;;;4974792;28;20180;-76
2021/09/17 12:56:11;;;;;;;1.50;1.30;;;;;;;;;;4993510;28;20518;-77
2021/09/17 12:58:39;;;;;;;4.10;1.80;;;;;;;;;;4967811;28;20026;-73
2021/09/17 13:01:07;;;;;;;1.40;1.20;;;;;;;;;;4971116;28;20107;-75
2021/09/17 13:03:34;;;;;;;1.73;1.20;;;;;;;;;;4990464;28;20026;-76
2021/09/17 13:06:06;;;;;;;1.50;1.38;;;;;;;;;;4974439;28;20049;-76
2021/09/17 13:08:39;;;;;;;4.85;1.75;;;;;;;;;;4985851;28;20382;-75
2021/09/17 13:11:07;;;;;;;4.32;1.70;;;;;;;;;;4982523;28;20022;-75
2021/09/17 13:13:32;;;;;;;8.20;1.98;;;;;;;;;;4966792;28;20030;-75
2021/09/17 13:15:58;;;;;;;5.72;1.92;;;;;;;;;;4990124;28;20083;-75
2021/09/17 13:18:24;;;;;;;3.70;1.77;;;;;;;;;;4960597;28;20262;-75
2021/09/17 13:20:50;;;;;;;4.82;1.95;;;;;;;;;;4988163;28;20109;-78
2021/09/17 13:23:16;;;;;;;6.00;2.17;;;;;;;;;;4992299;28;20030;-75
2021/09/17 13:25:43;;;;;;;4.72;2.50;;;;;;;;;;4972237;28;20030;-76
2021/09/17 13:28:11;;;;;;;3.72;1.80;;;;;;;;;;4996001;28;20375;-77
2021/09/17 13:30:39;;;;;;;5.00;2.47;;;;;;;;;;4969123;28;20129;-76
2021/09/17 13:33:06;;;;;;;5.25;2.20;;;;;;;;;;4982795;28;20019;-73
2021/09/17 13:35:34;;;;;;;4.18;1.80;;;;;;;;;;4987541;28;20097;-77
2021/09/17 13:38:00;;;;;;;3.58;1.83;;;;;;;;;;4972734;28;20030;-77
2021/09/17 13:40:28;;;;;;;3.40;2.03;;;;;;;;;;4983686;28;20061;-77
2021/09/17 13:42:54;;;;;;;4.68;2.30;;;;;;;;;;4973801;28;20034;-75
2021/09/17 13:45:22;;;;;;;5.47;1.90;;;;;;;;;;4998626;28;20371;-75
2021/09/17 13:47:48;;;;;;;3.80;2.20;;;;;;;;;;4991895;28;20036;-75
2021/09/17 13:50:19;;;;;;;4.75;2.13;;;;;;;;;;4989510;28;20082;-75
2021/09/17 13:52:53;;;;;;;4.55;2.17;;;;;;;;;;4987028;28;20038;-76
2021/09/17 13:55:23;;;;;;;4.45;1.73;;;;;;;;;;4991121;28;20026;-75
2021/09/17 13:57:49;;;;;;;2.67;1.75;;;;;;;;;;4971665;28;20049;-75
2021/09/17 14:00:16;;;;;;;3.38;1.60;;;;;;;;;;4972982;28;20042;-77
2021/09/17 14:02:42;;;;;;;4.53;1.50;;;;;;;;;;4994329;28;20022;-76
2021/09/17 14:05:09;;;;;;;3.78;2.28;;;;;;;;;;4971218;28;20040;-77
2021/09/17 14:07:36;;;;;;;4.13;1.65;;;;;;;;;;4988219;28;20022;-75
2021/09/17 14:10:04;;;;;;;3.60;1.45;;;;;;;;;;4973254;28;20030;-75
2021/09/17 14:12:30;;;;;;;2.22;1.55;;;;;;;;;;4972466;28;20053;-77
2021/09/17 14:14:57;;;;;;;3.33;1.80;;;;;;;;;;4991726;28;20076;-75
2021/09/17 14:17:22;;;;;;;2.20;1.45;;;;;;;;;;4972927;28;20388;-76
2021/09/17 14:19:49;;;;;;;2.25;1.20;;;;;;;;;;4975564;28;20058;-75
2021/09/17 14:22:14;;;;;;;1.58;1.48;;;;;;;;;;4991438;28;20054;-77
2021/09/17 14:24:40;;;;;;;1.10;1.10;;;;;;;;;;4990278;28;20116;-77
2021/09/17 14:27:07;;;;;;;2.53;1.52;;;;;;;;;;4970679;28;20177;-77
2021/09/17 14:29:34;;;;;;;2.60;1.08;;;;;;;;;;4988512;28;20022;-77
2021/09/17 14:32:00;;;;;;;1.60;1.23;;;;;;;;;;4989768;28;20051;-76
2021/09/17 14:34:26;;;;;;;11.60;2.10;;;;;;;;;;4987117;28;20382;-77
2021/09/17 14:36:52;;;;;;;1.70;1.10;;;;;;;;;;4977105;28;20034;-75
2021/09/17 14:39:17;;;;;;;3.30;1.05;;;;;;;;;;4988900;28;20422;-76
2021/09/17 14:41:44;;;;;;;4.03;1.80;;;;;;;;;;4989300;28;20128;-76